Time;durP1;ratioP1;P1;durP2;ratioP2;P2;SDS_P1;SDS_P2;PMS_P1;PMS_P2;Temp;Humidity;BMP_temperature;BMP_pressure;BME280_temperature;BME280_humidity;BME280_pressure;Samples;Min_cycle;Max_cycle;Signal;HPM_P1;HPM_P2
2022/09/21 00:02:05;;;;;;;11.52;1.50;;;7.20;99.90;;;;;;5032480;28;20129;-74
2022/09/21 00:04:32;;;;;;;3.53;1.45;;;7.20;99.90;;;;;;5032308;28;20444;-71
2022/09/21 00:06:57;;;;;;;5.22;0.93;;;7.10;99.90;;;;;;5014386;28;20103;-73
2022/09/21 00:09:23;;;;;;;4.55;1.38;;;7.10;99.90;;;;;;5033974;28;20124;-72
2022/09/21 00:11:49;;;;;;;6.30;1.52;;;7.10;99.90;;;;;;5035954;28;20041;-72
2022/09/21 00:14:15;;;;;;;8.82;1.55;;;7.10;99.90;;;;;;5037377;28;20037;-73
2022/09/21 00:16:42;;;;;;;4.45;1.55;;;7.10;99.90;;;;;;5036055;28;20068;-73
2022/09/21 00:19:09;;;;;;;5.20;1.50;;;7.10;99.90;;;;;;5035837;28;20052;-73
2022/09/21 00:21:36;;;;;;;10.60;1.70;;;7.10;99.90;;;;;;5036100;28;20042;-73
2022/09/21 00:24:03;;;;;;;8.63;1.50;;;7.00;99.90;;;;;;5035757;28;20130;-73
2022/09/21 00:26:29;;;;;;;5.65;1.30;;;7.00;99.90;;;;;;5018811;28;20476;-73
2022/09/21 00:28:58;;;;;;;10.85;1.58;;;7.00;99.90;;;;;;5035802;28;20049;-73
2022/09/21 00:31:25;;;;;;;17.65;2.13;;;7.00;99.90;;;;;;5035284;28;20547;-72
2022/09/21 00:33:51;;;;;;;10.00;1.58;;;7.00;99.90;;;;;;5035783;28;20088;-72
2022/09/21 00:36:20;;;;;;;4.10;1.30;;;7.00;99.90;;;;;;5035684;28;20034;-72
2022/09/21 00:38:51;;;;;;;21.67;2.33;;;7.00;99.90;;;;;;5035314;28;20522;-73
2022/09/21 00:41:18;;;;;;;4.88;1.63;;;7.00;99.90;;;;;;5035064;28;20053;-72
2022/09/21 00:44:21;;;;;;;25.35;2.28;;;6.90;99.90;;;;;;5035448;28;20049;-72
2022/09/21 00:46:49;;;;;;;17.05;1.45;;;6.90;99.90;;;;;;5035366;28;20057;-72
2022/09/21 00:49:16;;;;;;;14.20;1.88;;;6.90;99.90;;;;;;5017337;28;20049;-73
2022/09/21 00:51:43;;;;;;;4.28;1.40;;;6.80;99.90;;;;;;5034943;28;20120;-73
2022/09/21 00:54:31;;;;;;;6.90;1.65;;;6.90;99.90;;;;;;5035373;28;20124;-73
2022/09/21 00:57:01;;;;;;;5.22;1.55;;;6.90;99.90;;;;;;5034840;28;20112;-73
2022/09/21 00:59:30;;;;;;;7.35;1.80;;;6.90;99.90;;;;;;5034990;28;20058;-73
2022/09/21 01:01:57;;;;;;;6.15;1.70;;;7.00;99.90;;;;;;5034887;28;20088;-73
2022/09/21 01:04:25;;;;;;;4.75;1.60;;;7.00;99.90;;;;;;5034989;28;20041;-72
2022/09/21 01:06:51;;;;;;;4.32;1.50;;;7.00;99.90;;;;;;5034818;28;20088;-72
2022/09/21 01:09:18;;;;;;;3.53;1.40;;;7.00;99.90;;;;;;5035087;28;20080;-73
2022/09/21 01:11:55;;;;;;;3.53;1.30;;;6.90;99.90;;;;;;5035128;28;20465;-72
2022/09/21 01:14:29;;;;;;;3.95;1.33;;;6.90;99.90;;;;;;5034375;28;20065;-73
2022/09/21 01:17:35;;;;;;;3.80;1.58;;;6.90;99.90;;;;;;5034877;28;20046;-73
2022/09/21 01:20:39;;;;;;;5.90;1.73;;;6.80;99.90;;;;;;5033677;28;20135;-70
2022/09/21 01:23:17;;;;;;;20.17;2.45;;;6.90;99.90;;;;;;5034233;28;20046;-73
2022/09/21 01:25:52;;;;;;;14.82;2.25;;;6.80;99.90;;;;;;5016365;28;20049;-74
2022/09/21 01:28:28;;;;;;;5.75;1.98;;;6.80;99.90;;;;;;5034212;28;20077;-73
2022/09/21 01:30:57;;;;;;;4.75;1.90;;;6.80;99.90;;;;;;5034260;28;20056;-73
2022/09/21 01:33:29;;;;;;;7.25;1.95;;;6.80;99.90;;;;;;5034122;28;20040;-72
2022/09/21 01:36:06;;;;;;;6.37;2.00;;;6.80;99.90;;;;;;5034172;28;20459;-72
2022/09/21 01:38:37;;;;;;;5.07;1.50;;;6.70;99.90;;;;;;5034583;28;20291;-74
2022/09/21 01:41:06;;;;;;;4.95;1.70;;;6.70;99.90;;;;;;5034419;28;20404;-72
2022/09/21 01:43:55;;;;;;;5.68;1.52;;;6.70;99.90;;;;;;5015910;28;20050;-72
2022/09/21 01:46:24;;;;;;;4.38;1.40;;;6.60;99.90;;;;;;5033230;28;20085;-72
2022/09/21 01:48:57;;;;;;;10.32;1.60;;;6.60;99.90;;;;;;5033103;28;20099;-74
2022/09/21 01:51:26;;;;;;;22.55;1.92;;;6.50;99.90;;;;;;5034362;28;20108;-72
2022/09/21 01:53:55;;;;;;;3.30;1.23;;;6.50;99.90;;;;;;5016145;28;20447;-72
2022/09/21 01:56:29;;;;;;;6.03;1.65;;;6.50;99.90;;;;;;5033703;28;20041;-72
2022/09/21 01:59:13;;;;;;;6.13;1.50;;;6.50;99.90;;;;;;5033921;28;20049;-73
2022/09/21 02:01:53;;;;;;;9.95;1.60;;;6.40;99.90;;;;;;5033560;28;20397;-72
2022/09/21 02:04:19;;;;;;;4.97;1.20;;;6.40;99.90;;;;;;5033833;28;20072;-72
2022/09/21 02:06:47;;;;;;;4.53;1.33;;;6.30;99.90;;;;;;5033428;28;20057;-73
2022/09/21 02:09:13;;;;;;;5.38;1.50;;;6.40;99.90;;;;;;5033838;28;20060;-72
2022/09/21 02:11:42;;;;;;;4.72;1.35;;;7.20;99.90;;;;;;5033816;28;20083;-75
2022/09/21 02:14:15;;;;;;;4.78;1.55;;;6.30;99.90;;;;;;5015869;28;20084;-75
2022/09/21 02:16:41;;;;;;;3.90;1.30;;;7.30;99.90;;;;;;5033311;28;20048;-74
2022/09/21 02:19:37;;;;;;;5.10;1.30;;;6.20;99.90;;;;;;5033694;28;20407;-75
2022/09/21 02:22:12;;;;;;;5.70;1.33;;;6.00;99.90;;;;;;5033538;28;20041;-74
2022/09/21 02:24:48;;;;;;;5.55;1.40;;;6.10;99.90;;;;;;5015768;28;20480;-73
2022/09/21 02:27:13;;;;;;;3.60;1.27;;;6.10;99.90;;;;;;5015797;28;20132;-74
2022/09/21 02:29:51;;;;;;;2.67;1.00;;;6.40;99.90;;;;;;5033782;28;20127;-74
2022/09/21 02:32:25;;;;;;;5.70;1.52;;;6.20;99.90;;;;;;5032835;28;20045;-74
2022/09/21 02:35:07;;;;;;;3.55;1.33;;;6.20;99.90;;;;;;5033379;28;20087;-74
2022/09/21 02:37:47;;;;;;;4.32;1.50;;;6.20;99.90;;;;;;5033353;28;20374;-75
2022/09/21 02:40:24;;;;;;;5.28;1.70;;;6.30;99.90;;;;;;5033207;28;20051;-75
2022/09/21 02:42:55;;;;;;;10.27;1.92;;;6.30;99.90;;;;;;5015381;28;20045;-74
2022/09/21 02:45:26;;;;;;;8.50;1.60;;;6.90;99.90;;;;;;5033290;28;20037;-74
2022/09/21 02:48:15;;;;;;;6.30;1.48;;;7.10;99.90;;;;;;5032804;28;20049;-75
2022/09/21 02:50:46;;;;;;;11.52;1.77;;;6.30;99.90;;;;;;5033038;28;20041;-71
2022/09/21 02:53:16;;;;;;;7.03;1.80;;;6.30;99.90;;;;;;5032988;28;20046;-74
2022/09/21 02:55:44;;;;;;;5.75;1.90;;;6.30;99.90;;;;;;5033114;28;20068;-75
2022/09/21 02:58:13;;;;;;;5.35;1.40;;;7.30;99.90;;;;;;5033159;28;20053;-74
2022/09/21 03:00:39;;;;;;;8.38;1.40;;;7.10;99.90;;;;;;5033171;28;20080;-74
2022/09/21 03:03:19;;;;;;;4.55;1.30;;;7.20;99.90;;;;;;5032712;28;20445;-74
2022/09/21 03:05:47;;;;;;;15.70;2.00;;;6.30;99.90;;;;;;5032494;28;20432;-74
2022/09/21 03:08:13;;;;;;;15.98;2.13;;;6.30;99.90;;;;;;5032452;28;20172;-73
2022/09/21 03:10:39;;;;;;;12.55;1.80;;;6.30;99.90;;;;;;5032853;28;20524;-74
2022/09/21 03:13:09;;;;;;;5.22;1.40;;;7.30;99.90;;;;;;5032337;28;20045;-72
2022/09/21 03:15:36;;;;;;;12.25;1.83;;;6.60;99.90;;;;;;5014461;28;20096;-73
2022/09/21 03:18:08;;;;;;;24.05;1.85;;;6.50;99.90;;;;;;5032708;28;20037;-74
2022/09/21 03:20:37;;;;;;;3.13;1.20;;;7.10;99.90;;;;;;5032166;28;20053;-74
2022/09/21 03:23:03;;;;;;;4.43;1.17;;;6.90;99.90;;;;;;5032517;28;20073;-74
2022/09/21 03:25:30;;;;;;;3.78;1.13;;;6.10;99.90;;;;;;5032779;28;20049;-74
2022/09/21 03:27:57;;;;;;;7.80;1.50;;;7.10;99.90;;;;;;5032774;28;20401;-74
2022/09/21 03:30:24;;;;;;;5.28;1.50;;;6.10;99.90;;;;;;5032534;28;20413;-72
2022/09/21 03:32:51;;;;;;;6.05;1.55;;;6.10;99.90;;;;;;5032253;28;20045;-72
2022/09/21 03:35:17;;;;;;;6.47;1.50;;;6.20;99.90;;;;;;5032036;28;20447;-72
2022/09/21 03:37:45;;;;;;;6.15;1.30;;;7.20;99.90;;;;;;5032283;28;20469;-72
2022/09/21 03:40:11;;;;;;;5.07;1.30;;;6.20;99.90;;;;;;5032368;28;20572;-71
2022/09/21 03:42:38;;;;;;;7.10;2.13;;;7.10;99.90;;;;;;5032755;28;20084;-72
2022/09/21 03:45:05;;;;;;;5.72;1.50;;;6.20;99.90;;;;;;5036122;28;20041;-73
2022/09/21 03:47:30;;;;;;;6.35;1.63;;;6.20;99.90;;;;;;5036400;28;20052;-72
2022/09/21 03:49:56;;;;;;;6.57;1.52;;;6.20;99.90;;;;;;5036474;28;20081;-71
2022/09/21 03:52:22;;;;;;;4.20;1.30;;;6.10;99.90;;;;;;5035984;28;20481;-71
2022/09/21 03:54:47;;;;;;;2.95;0.80;;;6.40;99.90;;;;;;5018168;28;20045;-72
2022/09/21 03:57:13;;;;;;;8.48;1.10;;;7.00;99.90;;;;;;5036330;28;20128;-74
2022/09/21 03:59:39;;;;;;;4.68;1.15;;;6.90;99.90;;;;;;5036356;28;20469;-74
2022/09/21 04:02:04;;;;;;;7.15;0.80;;;6.80;99.90;;;;;;5036170;28;20064;-73
2022/09/21 04:04:30;;;;;;;1.20;0.73;;;5.80;99.90;;;;;;5036232;28;20128;-73
2022/09/21 04:06:57;;;;;;;1.52;0.70;;;5.80;99.90;;;;;;5035522;28;20505;-73
2022/09/21 04:09:25;;;;;;;5.70;0.82;;;5.80;99.90;;;;;;5035940;28;20072;-73
2022/09/21 04:11:52;;;;;;;2.47;0.65;;;6.50;99.90;;;;;;5036208;28;20056;-74
2022/09/21 04:14:19;;;;;;;5.72;0.90;;;6.80;99.90;;;;;;5035644;28;20139;-73
2022/09/21 04:16:45;;;;;;;3.78;0.95;;;7.00;99.90;;;;;;5036077;28;20064;-72
2022/09/21 04:19:11;;;;;;;7.68;1.27;;;6.00;99.90;;;;;;5035745;28;20053;-75
2022/09/21 04:21:37;;;;;;;11.35;1.60;;;6.10;99.90;;;;;;5018237;28;20048;-74
2022/09/21 04:24:03;;;;;;;4.93;0.82;;;6.50;99.90;;;;;;5035481;28;20080;-75
2022/09/21 04:26:33;;;;;;;3.20;0.82;;;5.70;99.90;;;;;;5035548;28;20042;-74
2022/09/21 04:28:59;;;;;;;6.75;1.00;;;6.80;99.90;;;;;;5035841;28;20129;-73
2022/09/21 04:31:27;;;;;;;13.02;2.20;;;6.50;99.90;;;;;;5035545;28;20073;-72
2022/09/21 04:33:56;;;;;;;16.10;1.90;;;6.70;99.90;;;;;;5035764;28;20045;-72
2022/09/21 04:36:23;;;;;;;14.98;2.20;;;6.20;99.90;;;;;;5035445;28;20044;-72
2022/09/21 04:38:49;;;;;;;25.45;2.20;;;5.40;99.90;;;;;;5035137;28;20081;-74
2022/09/21 04:41:15;;;;;;;14.23;1.48;;;6.00;99.90;;;;;;5035417;28;20088;-73
2022/09/21 04:43:43;;;;;;;5.15;0.98;;;6.30;99.90;;;;;;5035519;28;20037;-74
2022/09/21 04:46:11;;;;;;;4.32;0.85;;;5.70;99.90;;;;;;5035626;28;20088;-74
2022/09/21 04:48:38;;;;;;;6.22;1.15;;;5.30;99.90;;;;;;5035468;28;20396;-74
2022/09/21 04:51:06;;;;;;;2.28;0.88;;;6.40;99.90;;;;;;5035371;28;20053;-74
2022/09/21 04:53:32;;;;;;;2.45;1.00;;;5.20;99.90;;;;;;5017169;28;20045;-73
2022/09/21 04:55:58;;;;;;;3.50;0.90;;;6.20;99.90;;;;;;5033696;28;20041;-75
2022/09/21 04:58:24;;;;;;;2.13;0.80;;;5.40;99.90;;;;;;5035238;28;20507;-71
2022/09/21 05:00:51;;;;;;;17.48;1.52;;;5.10;99.90;;;;;;5017300;28;20079;-72
2022/09/21 05:03:20;;;;;;;20.55;3.17;;;6.10;99.90;;;;;;5035273;28;20046;-74
2022/09/21 05:05:51;;;;;;;6.25;1.20;;;5.80;99.90;;;;;;5035126;28;20104;-72
2022/09/21 05:08:17;;;;;;;7.05;1.20;;;6.00;99.90;;;;;;5034678;28;20065;-72
2022/09/21 05:10:43;;;;;;;2.90;1.15;;;6.00;99.90;;;;;;5034715;28;20042;-71
2022/09/21 05:13:09;;;;;;;7.60;1.40;;;5.20;99.90;;;;;;5034729;28;20063;-73
2022/09/21 05:15:38;;;;;;;12.77;1.50;;;5.10;99.90;;;;;;5034661;28;20120;-72
2022/09/21 05:18:04;;;;;;;18.35;1.98;;;6.00;99.90;;;;;;5034977;28;20505;-72
2022/09/21 05:20:29;;;;;;;2.88;1.08;;;5.10;99.90;;;;;;5034841;28;20065;-71
2022/09/21 05:23:00;;;;;;;2.95;1.05;;;5.70;99.90;;;;;;5034907;28;20397;-72
2022/09/21 05:25:26;;;;;;;4.05;1.20;;;5.10;99.90;;;;;;5016455;28;20084;-72
2022/09/21 05:27:51;;;;;;;4.40;1.05;;;5.10;99.90;;;;;;5034569;28;20422;-73
2022/09/21 05:30:18;;;;;;;7.28;1.33;;;5.40;99.90;;;;;;5034572;28;20127;-72
2022/09/21 05:33:02;;;;;;;5.95;1.02;;;5.00;99.90;;;;;;5034527;28;20049;-71
2022/09/21 05:35:41;;;;;;;4.85;1.02;;;6.10;99.90;;;;;;5034625;28;20052;-74
2022/09/21 05:38:17;;;;;;;2.05;0.77;;;5.70;99.90;;;;;;5034132;28;20078;-73
2022/09/21 05:40:43;;;;;;;6.18;1.13;;;4.90;99.90;;;;;;5034673;28;20077;-71
2022/09/21 05:43:10;;;;;;;5.53;1.00;;;4.90;99.90;;;;;;5033679;28;20044;-69
2022/09/21 05:45:44;;;;;;;7.78;1.42;;;4.90;99.90;;;;;;5026640;28;20049;-71
2022/09/21 05:48:25;;;;;;;13.32;1.40;;;6.00;99.90;;;;;;5014689;28;20042;-71
2022/09/21 05:51:20;;;;;;;3.25;1.15;;;5.80;99.90;;;;;;5022901;28;20046;-72
2022/09/21 05:53:59;;;;;;;6.88;1.20;;;4.90;99.90;;;;;;5029090;28;20120;-71
2022/09/21 05:56:51;;;;;;;3.47;1.00;;;4.90;99.90;;;;;;5031535;28;20053;-73
2022/09/21 05:59:36;;;;;;;2.80;1.15;;;4.90;99.90;;;;;;5033426;28;20079;-73
2022/09/21 06:02:43;;;;;;;4.07;1.20;;;4.90;99.90;;;;;;5033754;28;20480;-72
2022/09/21 06:05:13;;;;;;;8.95;1.20;;;5.60;99.90;;;;;;4934544;29;20131;-71
2022/09/21 06:07:40;;;;;;;2.28;0.98;;;4.90;99.90;;;;;;4918296;29;20507;-73
2022/09/21 06:10:07;;;;;;;6.80;1.30;;;6.00;99.90;;;;;;4934416;29;20056;-72
2022/09/21 06:12:32;;;;;;;5.32;1.48;;;5.00;99.90;;;;;;4934151;29;20048;-72
2022/09/21 06:14:58;;;;;;;4.10;1.40;;;6.20;99.90;;;;;;4933730;29;20044;-72
2022/09/21 06:17:26;;;;;;;7.97;1.63;;;5.90;99.90;;;;;;4934250;29;20047;-72
2022/09/21 06:19:52;;;;;;;4.00;1.42;;;6.00;99.90;;;;;;4934369;29;20058;-72
2022/09/21 06:22:18;;;;;;;3.90;1.40;;;5.10;99.90;;;;;;4934172;28;20071;-73
2022/09/21 06:24:44;;;;;;;2.83;1.17;;;6.10;99.90;;;;;;4934277;29;20181;-73
2022/09/21 06:27:10;;;;;;;4.30;1.10;;;5.20;99.90;;;;;;4934264;29;20055;-73
2022/09/21 06:29:35;;;;;;;3.45;1.23;;;5.70;99.90;;;;;;4933521;29;20051;-72
2022/09/21 06:32:03;;;;;;;2.45;1.10;;;5.80;99.90;;;;;;4933902;29;20055;-72
2022/09/21 06:34:28;;;;;;;5.07;1.63;;;6.10;99.90;;;;;;4932895;29;20123;-73
2022/09/21 06:36:54;;;;;;;4.95;1.48;;;6.30;99.90;;;;;;4933977;29;20232;-72
2022/09/21 06:39:19;;;;;;;6.57;1.73;;;6.00;99.90;;;;;;4933952;29;20551;-75
2022/09/21 06:41:45;;;;;;;5.85;1.50;;;6.70;99.90;;;;;;4980809;28;20053;-71
2022/09/21 06:44:11;;;;;;;5.80;1.88;;;5.90;99.90;;;;;;5028882;28;20099;-73
2022/09/21 06:46:36;;;;;;;4.13;1.75;;;5.80;99.90;;;;;;5030591;28;20033;-73
2022/09/21 06:49:02;;;;;;;6.70;1.65;;;5.90;99.90;;;;;;5031107;28;20052;-74
2022/09/21 06:51:28;;;;;;;4.80;1.60;;;6.80;99.90;;;;;;5031516;28;20040;-75
2022/09/21 06:53:55;;;;;;;9.18;1.90;;;6.20;99.90;;;;;;5031499;28;20053;-75
2022/09/21 06:56:21;;;;;;;6.00;2.00;;;6.20;99.90;;;;;;5031701;28;20077;-76
2022/09/21 06:58:47;;;;;;;7.28;2.10;;;6.40;99.90;;;;;;5031064;28;20575;-75
2022/09/21 07:01:14;;;;;;;8.50;1.80;;;6.40;99.90;;;;;;5031354;28;20037;-75
2022/09/21 07:03:41;;;;;;;8.35;2.17;;;6.40;99.90;;;;;;5030831;28;20056;-76
2022/09/21 07:06:07;;;;;;;6.38;1.92;;;6.50;99.90;;;;;;5030862;28;20432;-75
2022/09/21 07:08:38;;;;;;;8.32;1.90;;;6.60;99.90;;;;;;5013582;28;20064;-76
2022/09/21 07:11:05;;;;;;;7.28;2.40;;;6.70;99.90;;;;;;5031344;28;20447;-68
2022/09/21 07:13:31;;;;;;;10.40;2.47;;;6.80;99.90;;;;;;5031101;28;20131;-68
2022/09/21 07:15:56;;;;;;;6.88;2.50;;;7.00;99.90;;;;;;5029565;28;20041;-69
2022/09/21 07:18:22;;;;;;;6.45;2.38;;;7.10;99.90;;;;;;5029450;28;20045;-69
2022/09/21 07:20:48;;;;;;;9.27;2.60;;;7.30;99.90;;;;;;5030969;28;20046;-70
2022/09/21 07:23:18;;;;;;;6.55;2.10;;;7.40;99.90;;;;;;5031673;28;20042;-68
2022/09/21 07:25:48;;;;;;;9.00;2.60;;;7.50;99.90;;;;;;5011000;28;20050;-68
2022/09/21 07:28:13;;;;;;;7.82;2.33;;;7.70;99.90;;;;;;5029009;28;20563;-68
2022/09/21 07:30:40;;;;;;;9.07;2.40;;;7.80;99.90;;;;;;5030498;28;20120;-69
2022/09/21 07:33:06;;;;;;;10.95;2.63;;;7.90;99.90;;;;;;5030770;28;20436;-68
2022/09/21 07:35:33;;;;;;;11.77;2.80;;;8.00;99.90;;;;;;5029679;28;20045;-67
2022/09/21 07:38:05;;;;;;;11.35;3.00;;;8.20;99.90;;;;;;5031468;28;20073;-68
2022/09/21 07:40:32;;;;;;;11.30;3.25;;;8.30;99.90;;;;;;5028338;28;20389;-71
2022/09/21 07:43:01;;;;;;;9.63;3.67;;;8.40;99.90;;;;;;5014663;28;20091;-73
2022/09/21 07:45:27;;;;;;;12.60;3.58;;;8.50;99.90;;;;;;5031784;28;20048;-73
2022/09/21 07:47:53;;;;;;;11.27;2.60;;;8.70;99.90;;;;;;4995755;28;20057;-71
2022/09/21 07:50:22;;;;;;;11.00;3.38;;;8.90;99.90;;;;;;5030388;28;20053;-72
2022/09/21 07:52:47;;;;;;;7.90;2.50;;;9.00;99.90;;;;;;5012847;28;20397;-75
2022/09/21 07:55:14;;;;;;;10.15;2.67;;;9.10;99.90;;;;;;5014047;28;20045;-72
2022/09/21 08:00:24;;;;;;;7.90;3.10;;;9.50;99.90;;;;;;5009435;28;20061;-75
2022/09/21 08:02:50;;;;;;;9.57;2.65;;;9.80;99.90;;;;;;5029375;28;20103;-69
2022/09/21 08:05:18;;;;;;;13.73;3.83;;;9.90;99.90;;;;;;5011009;28;20057;-69
2022/09/21 08:07:44;;;;;;;10.18;3.53;;;9.90;99.90;;;;;;5011765;28;20133;-67
2022/09/21 08:10:09;;;;;;;13.55;3.45;;;10.10;99.90;;;;;;5013138;28;20137;-68
2022/09/21 08:12:36;;;;;;;12.68;4.00;;;10.20;99.90;;;;;;5030358;28;20477;-67
2022/09/21 08:15:02;;;;;;;12.27;2.90;;;10.40;99.90;;;;;;5012531;28;20046;-70
2022/09/21 08:17:28;;;;;;;6.38;2.30;;;10.50;99.90;;;;;;5030417;28;20040;-68
2022/09/21 08:19:54;;;;;;;13.25;2.70;;;10.60;99.90;;;;;;5030201;28;20057;-67
2022/09/21 08:22:23;;;;;;;13.63;2.85;;;10.80;99.90;;;;;;5012259;28;20418;-67
2022/09/21 08:24:49;;;;;;;18.40;2.45;;;10.90;99.90;;;;;;5030476;28;20034;-68
2022/09/21 08:27:15;;;;;;;11.90;2.33;;;11.10;99.90;;;;;;5031943;28;20049;-68
2022/09/21 08:29:41;;;;;;;13.20;2.78;;;11.20;99.90;;;;;;5033266;28;20405;-70
2022/09/21 08:32:06;;;;;;;6.82;1.73;;;11.40;99.90;;;;;;5035544;28;20049;-68
2022/09/21 08:34:32;;;;;;;8.70;1.90;;;11.50;99.90;;;;;;5017727;28;20057;-68
2022/09/21 08:36:58;;;;;;;9.45;1.58;;;11.70;99.90;;;;;;5035118;28;20045;-70
2022/09/21 08:39:23;;;;;;;11.15;1.67;;;11.80;99.90;;;;;;5035340;28;20053;-68
2022/09/21 08:42:07;;;;;;;8.07;1.55;;;11.90;99.90;;;;;;5035286;28;20370;-69
2022/09/21 08:44:40;;;;;;;5.05;1.33;;;12.10;99.90;;;;;;5017530;28;20129;-72
2022/09/21 08:47:16;;;;;;;10.45;1.67;;;12.30;99.90;;;;;;5035292;28;20049;-68
2022/09/21 08:49:47;;;;;;;6.93;1.10;;;12.40;99.90;;;;;;5035486;28;20132;-68
2022/09/21 08:52:16;;;;;;;8.35;1.20;;;12.50;99.90;;;;;;5034857;28;20050;-68
2022/09/21 08:54:54;;;;;;;7.97;1.05;;;12.60;99.90;;;;;;5035290;28;20049;-71
2022/09/21 08:57:25;;;;;;;5.50;1.08;;;12.70;99.90;;;;;;5035536;28;20493;-73
2022/09/21 08:59:51;;;;;;;5.72;1.00;;;12.80;99.90;;;;;;5035097;28;20115;-69
2022/09/21 09:02:28;;;;;;;4.95;0.90;;;12.90;99.90;;;;;;5035337;28;20128;-66
2022/09/21 09:04:59;;;;;;;7.28;1.05;;;13.00;99.90;;;;;;5016806;28;20064;-68
2022/09/21 09:07:25;;;;;;;3.93;0.90;;;13.10;99.90;;;;;;5034094;28;20123;-68
2022/09/21 09:10:09;;;;;;;5.45;1.35;;;13.20;99.90;;;;;;5035030;28;20764;-66
2022/09/21 09:13:14;;;;;;;10.50;2.65;;;13.30;99.90;;;;;;5027906;28;20049;-69
2022/09/21 09:15:48;;;;;;;5.85;1.05;;;13.30;99.90;;;;;;5028370;28;20048;-67
2022/09/21 09:18:22;;;;;;;4.55;0.82;;;13.20;99.90;;;;;;5016409;28;20041;-69
2022/09/21 09:20:55;;;;;;;3.67;0.80;;;13.30;99.90;;;;;;5034616;28;20107;-68
2022/09/21 09:23:39;;;;;;;3.40;0.90;;;13.40;99.90;;;;;;5015773;28;20493;-69
2022/09/21 09:26:29;;;;;;;1.92;0.80;;;13.60;99.90;;;;;;5016941;28;20496;-67
2022/09/21 09:29:03;;;;;;;7.32;1.10;;;13.70;99.90;;;;;;5035407;28;20154;-72
2022/09/21 09:31:37;;;;;;;7.22;1.25;;;13.90;99.90;;;;;;5035394;28;20044;-68
2022/09/21 09:34:31;;;;;;;5.28;0.82;;;14.10;99.90;;;;;;5035407;28;20050;-68
2022/09/21 09:37:00;;;;;;;3.38;0.82;;;14.20;99.90;;;;;;5034890;28;20056;-69
2022/09/21 09:39:28;;;;;;;7.18;1.38;;;14.10;99.90;;;;;;5016261;28;20578;-71
2022/09/21 09:42:02;;;;;;;4.90;1.52;;;14.20;99.90;;;;;;5033945;28;20051;-70
2022/09/21 09:44:43;;;;;;;4.32;0.88;;;14.30;99.90;;;;;;5015035;28;20041;-70
2022/09/21 09:47:33;;;;;;;2.50;0.75;;;14.50;99.90;;;;;;5029014;28;20401;-70
2022/09/21 09:50:20;;;;;;;4.78;1.25;;;14.60;99.90;;;;;;5031938;28;20132;-70
2022/09/21 09:52:53;;;;;;;4.63;0.73;;;14.70;99.90;;;;;;5033419;28;20117;-70
2022/09/21 09:55:23;;;;;;;6.30;1.52;;;14.80;99.90;;;;;;5014521;28;20497;-73
2022/09/21 09:57:49;;;;;;;3.72;0.98;;;14.90;99.90;;;;;;5032848;28;20563;-74
2022/09/21 10:00:20;;;;;;;8.02;0.90;;;15.10;99.90;;;;;;5033513;28;20453;-72
2022/09/21 10:02:48;;;;;;;7.35;1.00;;;15.20;99.90;;;;;;5031793;28;20045;-73
2022/09/21 10:05:37;;;;;;;3.72;0.80;;;15.30;99.90;;;;;;5030739;28;20049;-70
2022/09/21 10:08:03;;;;;;;6.03;1.10;;;15.30;99.90;;;;;;5012929;28;20563;-73
2022/09/21 10:10:33;;;;;;;10.15;1.20;;;15.40;99.90;;;;;;5029084;28;20183;-71
2022/09/21 10:13:21;;;;;;;4.55;1.02;;;15.50;99.90;;;;;;5033139;28;20065;-69
2022/09/21 10:15:53;;;;;;;3.78;0.80;;;15.60;99.90;;;;;;5022279;28;20117;-75
2022/09/21 10:18:36;;;;;;;;;;;15.80;99.90;;;;;;5023925;28;20052;-86
2022/09/21 10:21:06;;;;;;;5.50;0.98;;;15.80;99.90;;;;;;4992886;28;19917;-69
2022/09/21 10:23:43;;;;;;;6.20;0.80;;;16.00;99.90;;;;;;5030923;28;20077;-73
2022/09/21 10:26:12;;;;;;;2.20;0.50;;;16.10;99.90;;;;;;5013578;28;20083;-73
2022/09/21 10:28:58;;;;;;;6.88;0.95;;;16.00;99.90;;;;;;5031232;28;20042;-72
2022/09/21 10:31:29;;;;;;;4.05;0.88;;;16.10;99.90;;;;;;5031255;28;20053;-72
2022/09/21 10:34:14;;;;;;;3.40;0.70;;;16.20;99.90;;;;;;5030226;28;20124;-74
2022/09/21 10:36:41;;;;;;;5.68;0.98;;;16.20;99.90;;;;;;5022838;28;20042;-74
2022/09/21 10:39:32;;;;;;;5.22;0.80;;;16.30;99.90;;;;;;4989095;28;20110;-80
2022/09/21 10:42:03;;;;;;;2.75;0.70;;;16.40;99.90;;;;;;4987338;28;20042;-74
2022/09/21 10:44:43;;;;;;;3.47;0.88;;;16.50;99.90;;;;;;4967548;28;20045;-72
2022/09/21 10:47:34;;;;;;;3.17;0.80;;;16.60;99.90;;;;;;4969828;28;20053;-72
2022/09/21 10:50:26;;;;;;;3.17;0.93;;;16.70;99.90;;;;;;4986471;28;20065;-72
2022/09/21 10:53:12;;;;;;;4.68;1.00;;;16.90;99.90;;;;;;4988626;28;20054;-72
2022/09/21 10:55:55;;;;;;;3.90;0.80;;;17.00;99.90;;;;;;4969830;28;20537;-73
2022/09/21 10:58:21;;;;;;;3.45;0.95;;;17.10;99.90;;;;;;4969528;28;20054;-74
2022/09/21 11:00:50;;;;;;;5.85;0.80;;;17.10;99.90;;;;;;4954031;28;20055;-74
2022/09/21 11:03:30;;;;;;;2.67;0.68;;;17.20;99.90;;;;;;4969218;28;20053;-73
2022/09/21 11:06:03;;;;;;;4.00;0.65;;;17.30;99.90;;;;;;4967161;28;20086;-73
2022/09/21 11:08:50;;;;;;;10.30;0.98;;;17.10;99.90;;;;;;4968486;28;20050;-73
2022/09/21 11:11:34;;;;;;;5.57;0.85;;;16.80;99.90;;;;;;4989869;28;20086;-72
2022/09/21 11:14:06;;;;;;;4.43;0.75;;;16.60;99.90;;;;;;4990586;28;20062;-75
2022/09/21 11:16:41;;;;;;;8.15;0.88;;;16.80;99.90;;;;;;5002104;28;20522;-73
2022/09/21 11:19:31;;;;;;;2.90;0.60;;;17.00;99.90;;;;;;5003273;28;20509;-71
2022/09/21 11:22:10;;;;;;;5.00;0.75;;;17.20;99.90;;;;;;5006274;28;20085;-74
2022/09/21 11:24:59;;;;;;;4.25;0.65;;;17.10;99.90;;;;;;5006940;28;20137;-74
2022/09/21 11:27:35;;;;;;;3.72;0.95;;;16.90;99.90;;;;;;5023790;28;20102;-72
2022/09/21 11:30:09;;;;;;;3.35;0.73;;;16.90;99.90;;;;;;5029948;28;20041;-74
2022/09/21 11:32:53;;;;;;;1.65;0.55;;;16.90;99.90;;;;;;5031078;28;20389;-70
2022/09/21 11:35:40;;;;;;;8.85;0.70;;;17.10;99.90;;;;;;5029744;28;20057;-77
2022/09/21 11:38:26;;;;;;;5.88;0.70;;;17.10;99.90;;;;;;5022383;28;20558;-75
2022/09/21 11:40:53;;;;;;;3.65;0.55;;;17.40;99.90;;;;;;5022072;28;20041;-72
2022/09/21 11:43:24;;;;;;;2.30;0.77;;;17.30;99.90;;;;;;5021331;28;20045;-68
2022/09/21 11:45:57;;;;;;;3.75;0.50;;;17.30;99.90;;;;;;5020017;28;20129;-72
2022/09/21 11:48:50;;;;;;;5.65;1.10;;;17.30;99.90;;;;;;5021752;28;20600;-70
2022/09/21 11:51:41;;;;;;;6.22;0.80;;;17.40;99.90;;;;;;5021167;28;20049;-71
2022/09/21 11:54:24;;;;;;;2.55;0.60;;;17.60;99.90;;;;;;5022163;28;20684;-70
2022/09/21 11:57:00;;;;;;;7.88;1.00;;;17.80;99.90;;;;;;5022212;28;20053;-72
2022/09/21 11:59:55;;;;;;;5.88;0.80;;;17.90;99.90;;;;;;5021413;28;20076;-71
2022/09/21 12:02:40;;;;;;;5.88;1.00;;;18.00;99.90;;;;;;5022030;28;20054;-72
2022/09/21 12:05:08;;;;;;;5.28;1.00;;;18.00;99.90;;;;;;5023646;28;20129;-72
2022/09/21 12:07:39;;;;;;;5.88;0.90;;;18.00;99.90;;;;;;5026262;28;20091;-71
2022/09/21 12:10:11;;;;;;;3.65;0.70;;;17.90;99.90;;;;;;5022823;28;20081;-71
2022/09/21 12:12:48;;;;;;;3.95;0.63;;;17.90;99.90;;;;;;5008303;28;20089;-72
2022/09/21 12:15:41;;;;;;;2.65;0.75;;;17.90;99.90;;;;;;5024667;28;20053;-71
2022/09/21 12:18:24;;;;;;;2.78;0.57;;;17.80;99.90;;;;;;4905524;29;20052;-69
2022/09/21 12:21:11;;;;;;;2.92;0.57;;;17.50;99.90;;;;;;4910234;29;20063;-72
2022/09/21 12:24:00;;;;;;;5.32;0.80;;;17.30;99.90;;;;;;4907334;29;20119;-73
2022/09/21 12:26:33;;;;;;;3.47;0.70;;;17.00;99.90;;;;;;4906671;29;20055;-74
2022/09/21 12:29:10;;;;;;;2.45;0.60;;;17.10;99.90;;;;;;4906667;29;21180;-71
2022/09/21 12:31:51;;;;;;;3.90;0.63;;;17.20;99.90;;;;;;4904847;29;20092;-72
2022/09/21 12:34:23;;;;;;;2.17;0.70;;;17.40;99.90;;;;;;4890791;29;20063;-69
2022/09/21 12:37:06;;;;;;;6.55;0.70;;;17.50;99.90;;;;;;4906326;29;20067;-70
2022/09/21 12:39:45;;;;;;;5.25;1.05;;;17.70;99.90;;;;;;4905508;29;20044;-71
2022/09/21 12:42:42;;;;;;;2.63;0.70;;;17.80;99.90;;;;;;4905594;28;20166;-71
2022/09/21 12:45:16;;;;;;;5.63;0.70;;;17.80;99.90;;;;;;4905163;29;20091;-71
2022/09/21 12:48:06;;;;;;;6.10;0.90;;;18.00;99.90;;;;;;4905982;28;20115;-71
2022/09/21 12:50:47;;;;;;;3.95;0.57;;;17.90;99.90;;;;;;4905335;29;20130;-71
2022/09/21 12:53:17;;;;;;;3.47;0.68;;;18.00;99.90;;;;;;4890593;29;20064;-71
2022/09/21 12:55:55;;;;;;;1.67;0.60;;;18.10;99.90;;;;;;4996410;28;20081;-70
2022/09/21 12:58:23;;;;;;;2.70;0.40;;;18.00;99.90;;;;;;5026300;28;20193;-70
2022/09/21 13:00:55;;;;;;;4.68;0.70;;;18.20;99.90;;;;;;5025328;28;20123;-70
2022/09/21 13:03:31;;;;;;;3.33;0.88;;;18.30;99.90;;;;;;5030292;28;20061;-71
2022/09/21 13:06:28;;;;;;;3.85;0.88;;;18.30;99.90;;;;;;5032464;28;20447;-69
2022/09/21 13:08:54;;;;;;;8.60;1.02;;;18.30;99.90;;;;;;5012565;28;20584;-69
2022/09/21 13:11:23;;;;;;;2.90;0.60;;;18.20;99.90;;;;;;5032287;28;20060;-71
2022/09/21 13:13:58;;;;;;;3.80;0.90;;;18.30;99.90;;;;;;4999123;28;20053;-71
2022/09/21 13:16:38;;;;;;;4.60;0.88;;;18.20;99.90;;;;;;4997607;28;20835;-71
2022/09/21 13:19:15;;;;;;;5.15;1.02;;;18.20;99.90;;;;;;5031990;28;20048;-74
2022/09/21 13:22:18;;;;;;;4.10;0.68;;;18.00;99.90;;;;;;5021060;28;20129;-71